Time;durP1;ratioP1;P1;durP2;ratioP2;P2;SDS_P1;SDS_P2;PMS_P1;PMS_P2;Temp;Humidity;BMP_temperature;BMP_pressure;BME280_temperature;BME280_humidity;BME280_pressure;Samples;Min_cycle;Max_cycle;Signal;HPM_P1;HPM_P2
2023/12/13 00:05:05;;;;;;;1.00;0.80;;;11.40;99.90;;;11.59;66.58;97311.28;6213215;22;117338;-79
2023/12/13 00:11:14;;;;;;;1.10;0.97;;;11.40;99.90;;;11.58;66.77;97313.25;6213093;22;124924;-79
2023/12/13 00:17:24;;;;;;;9.00;1.00;;;11.40;99.90;;;11.57;67.07;97313.59;6213401;22;114985;-79
2023/12/13 01:27:32;;;;;;;4.60;0.97;;;10.90;99.90;;;10.97;66.35;97269.34;6201873;22;98707;-79
2023/12/13 01:34:03;;;;;;;2.50;0.90;;;10.30;99.90;;;10.90;66.42;97281.00;6274177;22;124940;-80
2023/12/13 01:40:12;;;;;;;1.30;1.00;;;9.80;99.90;;;10.80;66.63;97264.91;6274785;22;114933;-79
2023/12/13 01:42:51;;;;;;;1.93;0.97;;;14.00;99.90;;;10.78;66.82;97262.53;6247775;22;123919;-78
2023/12/13 01:49:01;;;;;;;2.37;1.03;;;13.30;99.90;;;10.78;66.61;97272.78;6274575;22;115367;-78
2023/12/13 01:55:14;;;;;;;2.70;1.03;;;9.40;99.90;;;10.72;66.59;97280.50;6273832;22;125222;-78
2023/12/13 02:01:22;;;;;;;1.93;0.90;;;9.40;99.90;;;10.63;66.21;97265.22;6273888;22;116169;-78
2023/12/13 02:07:31;;;;;;;1.57;0.90;;;9.00;99.90;;;10.51;66.67;97257.78;6273939;22;125274;-78
2023/12/13 05:40:31;;;;;;;1.10;0.80;;;10.40;99.90;;;10.48;66.57;97121.25;6274299;22;115014;-81
2023/12/13 05:44:05;;;;;;;2.53;1.10;;;12.20;99.90;;;10.46;66.57;97118.03;6273293;22;124859;-84
2023/12/13 05:46:45;;;;;;;1.87;1.10;;;10.20;99.90;;;10.46;66.40;97117.22;6273471;22;125900;-83
2023/12/13 05:50:27;;;;;;;1.57;1.10;;;11.50;99.90;;;10.43;66.22;97113.22;6270997;22;114396;-82
2023/12/13 05:53:19;;;;;;;2.83;1.30;;;10.20;99.90;;;10.41;66.52;97103.69;6274689;22;114861;-82
2023/12/13 05:56:13;;;;;;;1.67;1.17;;;12.70;99.90;;;10.37;66.51;97104.38;6246836;22;123228;-83
2023/12/13 05:58:41;;;;;;;1.30;0.93;;;10.30;99.90;;;10.40;66.70;97097.34;6269137;22;121989;-82
2023/12/13 06:04:52;;;;;;;2.70;1.27;;;10.20;99.90;;;10.36;66.54;97093.69;6273698;22;115908;-83
2023/12/13 06:08:05;;;;;;;2.50;1.20;;;12.20;99.90;;;10.34;66.78;97105.09;6251097;22;124940;-83
2023/12/13 06:11:00;;;;;;;1.63;1.10;;;10.10;99.90;;;10.32;66.62;97112.91;6272547;22;124039;-85
2023/12/13 06:17:09;;;;;;;1.97;1.20;;;12.20;99.90;;;10.27;66.81;97104.06;6272998;22;114449;-86
2023/12/13 06:20:21;;;;;;;1.20;1.00;;;12.50;99.90;;;10.27;67.03;97104.88;6274136;22;123944;-84
2023/12/13 06:22:49;;;;;;;1.53;1.10;;;8.50;99.90;;;10.29;66.93;97112.78;6217953;22;123933;-85
2023/12/13 06:25:51;;;;;;;3.07;1.37;;;8.10;99.90;;;10.26;66.86;97106.03;6216801;22;114926;-82
2023/12/13 06:28:55;;;;;;;1.97;1.17;;;12.80;99.90;;;10.28;67.12;97106.47;6190716;22;112201;-86
2023/12/13 06:31:45;;;;;;;1.73;1.00;;;10.00;99.90;;;10.32;66.93;97106.59;6216652;22;124790;-86
2023/12/13 06:39:12;;;;;;;1.10;0.97;;;10.10;99.90;;;10.35;67.44;97105.88;6240326;22;115315;-87
2023/12/13 06:41:46;;;;;;;2.27;1.10;;;12.00;99.90;;;10.37;66.89;97098.84;6243002;22;113209;-86
2023/12/13 06:44:29;;;;;;;1.67;1.07;;;13.30;99.90;;;10.40;67.22;97091.84;6211248;22;123836;-86
2023/12/13 06:50:56;;;;;;;2.47;1.13;;;9.70;99.90;;;10.44;67.36;97087.19;6239929;22;114908;-89
2023/12/13 06:53:31;;;;;;;1.10;0.93;;;10.60;99.90;;;10.47;67.36;97091.22;6236249;22;113508;-89
2023/12/13 06:56:00;;;;;;;1.43;1.20;;;10.10;99.90;;;10.48;67.01;97093.63;6189960;22;123678;-87
2023/12/13 06:58:50;;;;;;;4.60;1.67;;;11.40;99.90;;;10.48;67.41;97079.81;6242552;22;123669;-82
2023/12/13 07:01:52;;;;;;;2.03;1.07;;;10.10;99.90;;;10.47;67.39;97080.97;6215225;22;115820;-87
2023/12/13 07:04:26;;;;;;;3.77;1.10;;;10.10;99.90;;;10.49;67.23;97084.19;6216076;22;114744;-87
2023/12/13 07:07:17;;;;;;;2.20;1.10;;;10.40;99.90;;;10.48;67.36;97079.03;6215686;22;122887;-89
2023/12/13 07:09:45;;;;;;;1.03;0.93;;;10.40;99.90;;;10.49;67.39;97084.19;6242210;22;123668;-86
2023/12/13 07:12:27;;;;;;;2.13;1.20;;;11.40;99.90;;;10.48;67.28;97088.09;6215513;22;112970;-88
2023/12/13 07:14:58;;;;;;;2.73;1.13;;;10.20;99.90;;;10.52;67.23;97086.22;6243002;22;114109;-87
2023/12/13 07:17:33;;;;;;;1.70;1.20;;;11.30;99.90;;;10.55;67.25;97088.28;6243131;22;124861;-83
2023/12/13 07:23:07;;;;;;;2.47;1.10;;;10.20;99.90;;;10.52;67.53;97077.94;6262449;22;117295;-86
2023/12/13 07:25:59;;;;;;;2.23;1.17;;;9.00;99.90;;;10.54;67.31;97086.69;6220336;22;113741;-83
2023/12/13 07:29:10;;;;;;;2.00;1.30;;;10.30;99.90;;;10.52;67.28;97080.69;6274006;22;123887;-83
2023/12/13 07:32:53;;;;;;;1.67;1.00;;;10.40;99.90;;;10.55;67.21;97077.22;6247066;22;122842;-84
2023/12/13 07:39:56;;;;;;;3.80;1.30;;;10.40;99.90;;;10.55;67.48;97082.75;6274239;22;115157;-86
2023/12/13 07:42:36;;;;;;;1.40;1.10;;;10.30;99.90;;;10.55;67.08;97066.19;6273558;22;123742;-86
2023/12/13 07:45:44;;;;;;;1.97;1.00;;;10.30;99.90;;;10.59;67.19;97066.28;6246556;22;124582;-87
2023/12/13 07:48:28;;;;;;;1.23;1.00;;;10.40;99.90;;;10.63;67.52;97077.44;6219683;22;113704;-89
2023/12/13 07:51:08;;;;;;;1.87;1.10;;;10.50;99.90;;;10.63;66.93;97067.16;6221721;22;112598;-86
2023/12/13 07:53:35;;;;;;;1.20;1.00;;;10.40;99.90;;;10.65;67.06;97075.91;6268464;22;123715;-87
2023/12/13 07:56:08;;;;;;;1.60;1.27;;;10.70;99.90;;;10.66;66.80;97077.50;6263835;22;123573;-88
2023/12/13 07:58:54;;;;;;;2.80;1.57;;;10.40;99.90;;;10.65;67.00;97072.34;6271836;22;115966;-88
2023/12/13 08:02:20;;;;;;;1.20;1.10;;;10.40;99.90;;;10.64;66.95;97073.50;6246711;22;115610;-88
2023/12/13 08:04:56;;;;;;;1.90;1.30;;;10.40;99.90;;;10.64;66.84;97076.25;6270509;22;125072;-88
2023/12/13 08:07:25;;;;;;;2.10;1.50;;;10.60;99.90;;;10.63;67.10;97077.44;6271499;22;123637;-88
2023/12/13 08:10:45;;;;;;;2.10;1.33;;;12.20;99.90;;;10.61;67.09;97080.53;6273305;22;115031;-87
2023/12/13 08:13:17;;;;;;;1.87;1.30;;;10.30;99.90;;;10.59;67.24;97080.91;6271767;22;114914;-88
2023/12/13 08:15:51;;;;;;;2.53;1.10;;;13.00;99.90;;;10.60;67.00;97078.94;6241594;22;122531;-88
2023/12/13 08:18:17;;;;;;;3.23;1.10;;;10.30;99.90;;;10.60;67.11;97079.72;6270337;22;123690;-88
2023/12/13 08:20:44;;;;;;;2.80;1.33;;;10.50;99.90;;;10.59;67.33;97091.94;6272582;22;114472;-86
2023/12/13 08:23:24;;;;;;;1.37;1.13;;;10.30;99.90;;;10.58;67.71;97089.53;6302105;22;113873;-85
2023/12/13 08:26:13;;;;;;;2.20;1.30;;;10.30;99.90;;;10.54;67.79;97080.34;6274396;22;123449;-88
2023/12/13 08:28:46;;;;;;;2.40;1.50;;;10.30;99.90;;;10.55;67.86;97076.44;6249291;22;122865;-88
2023/12/13 08:31:28;;;;;;;1.13;1.00;;;10.30;99.90;;;10.53;67.76;97082.31;6304200;22;113914;-86
2023/12/13 08:34:11;;;;;;;3.20;1.43;;;10.70;99.90;;;10.56;68.12;97080.81;6276252;22;113052;-88
2023/12/13 08:36:38;;;;;;;1.00;0.80;;;10.30;99.90;;;10.58;68.38;97075.72;6303147;22;123740;-87
2023/12/13 08:39:09;;;;;;;1.17;1.00;;;10.40;99.90;;;10.63;68.23;97078.22;6298151;22;123390;-87
2023/12/13 08:41:43;;;;;;;2.27;1.40;;;12.10;99.90;;;10.64;68.05;97081.78;6300186;22;114963;-86
2023/12/13 08:44:21;;;;;;;1.60;1.20;;;10.30;99.90;;;10.66;67.89;97082.22;6298366;22;114920;-86
2023/12/13 08:46:52;;;;;;;2.07;1.40;;;10.40;99.90;;;10.66;68.03;97076.72;6271140;22;123654;-87
2023/12/13 08:49:25;;;;;;;2.63;1.20;;;10.40;99.90;;;10.69;68.08;97073.22;6238682;22;122707;-88
2023/12/13 08:51:52;;;;;;;2.80;1.27;;;11.70;99.90;;;10.71;68.34;97068.16;6293175;22;115039;-82
2023/12/13 08:54:18;;;;;;;1.80;1.53;;;10.50;99.90;;;10.72;68.04;97070.59;6237980;22;113327;-85
2023/12/13 08:56:47;;;;;;;5.00;1.50;;;10.50;99.90;;;10.74;68.20;97072.97;6257507;22;123829;-83
2023/12/13 08:59:17;;;;;;;3.53;1.63;;;10.50;99.90;;;10.75;67.92;97067.09;6250151;22;122481;-84
2023/12/13 09:01:54;;;;;;;1.67;1.20;;;11.80;99.90;;;10.77;68.16;97066.72;6264284;22;112280;-86
2023/12/13 09:04:20;;;;;;;3.53;1.50;;;10.50;99.90;;;10.80;67.73;97060.50;6292855;22;113816;-87
2023/12/13 09:06:53;;;;;;;3.50;1.50;;;10.50;99.90;;;10.84;68.17;97062.19;6265469;22;122369;-87
2023/12/13 09:09:24;;;;;;;1.50;1.03;;;10.60;99.90;;;10.87;67.67;97057.91;6241585;22;123728;-86
2023/12/13 09:11:52;;;;;;;3.13;1.43;;;12.00;99.90;;;10.91;67.66;97061.56;6269029;22;113692;-87
2023/12/13 09:14:27;;;;;;;2.47;1.70;;;11.10;99.90;;;10.92;67.40;97060.41;6239254;22;111912;-84
2023/12/13 09:17:09;;;;;;;3.70;1.50;;;12.50;99.90;;;10.96;67.50;97063.25;6271005;22;123165;-87
2023/12/13 09:20:09;;;;;;;3.00;1.40;;;12.80;99.90;;;10.96;67.61;97058.53;6151406;22;123825;-87
2023/12/13 09:22:39;;;;;;;2.10;1.37;;;10.60;99.90;;;10.99;67.30;97073.59;6139506;23;113944;-86
2023/12/13 09:25:14;;;;;;;3.57;1.17;;;10.70;99.90;;;11.01;67.73;97065.75;6141018;23;113790;-86
2023/12/13 09:27:46;;;;;;;2.70;1.33;;;10.70;99.90;;;11.03;67.69;97066.19;6116906;23;123899;-86
2023/12/13 09:30:20;;;;;;;4.83;1.53;;;10.70;99.90;;;11.03;67.58;97066.19;6141703;23;122484;-87
2023/12/13 09:32:47;;;;;;;4.33;1.43;;;10.70;99.90;;;11.04;67.42;97076.91;6132953;23;115555;-84
2023/12/13 09:35:17;;;;;;;7.03;1.63;;;10.70;99.90;;;11.05;67.60;97078.50;6133585;23;113994;-86
2023/12/13 09:37:45;;;;;;;6.40;1.60;;;10.70;99.90;;;11.08;67.26;97065.13;6132681;23;122959;-87
2023/12/13 09:40:16;;;;;;;3.23;1.80;;;10.70;99.90;;;11.10;67.54;97073.88;6105404;23;123627;-88
2023/12/13 09:42:47;;;;;;;2.40;1.30;;;10.70;99.90;;;11.12;67.35;97072.31;6128728;23;115604;-82
2023/12/13 09:45:24;;;;;;;3.07;1.20;;;10.80;99.90;;;11.15;67.49;97087.38;6128280;23;114767;-85
2023/12/13 09:47:55;;;;;;;1.90;1.33;;;10.80;99.90;;;11.14;67.64;97074.75;6132580;23;124040;-86
2023/12/13 09:50:27;;;;;;;2.73;1.20;;;10.80;99.90;;;11.18;67.06;97083.94;6131547;23;123497;-86
2023/12/13 09:53:02;;;;;;;2.27;1.50;;;10.90;99.90;;;11.21;67.42;97075.72;6148830;22;113538;-87
2023/12/13 09:55:38;;;;;;;1.93;1.50;;;10.90;99.90;;;11.23;67.35;97086.41;6172122;22;114782;-89
2023/12/13 09:58:05;;;;;;;2.70;1.30;;;10.90;99.90;;;11.26;66.80;97080.19;6175658;22;124633;-86
2023/12/13 10:00:32;;;;;;;6.13;1.20;;;10.90;99.90;;;11.25;67.02;97095.94;6193827;22;123514;-85
2023/12/13 10:03:05;;;;;;;2.60;1.70;;;11.00;99.90;;;11.27;66.97;97090.84;6196952;22;113879;-85
2023/12/13 10:05:33;;;;;;;1.97;1.27;;;11.00;99.90;;;11.27;66.84;97090.84;6172307;22;114819;-86
2023/12/13 10:08:05;;;;;;;4.30;1.23;;;11.00;99.90;;;11.28;67.18;97095.25;6171845;22;123300;-88
2023/12/13 10:10:37;;;;;;;3.87;1.30;;;11.00;99.90;;;11.30;66.89;97094.88;6260283;22;122994;-85
2023/12/13 10:13:05;;;;;;;2.47;1.23;;;11.00;99.90;;;11.32;66.59;97087.03;6227395;22;112856;-84
2023/12/13 10:15:47;;;;;;;6.13;1.40;;;11.00;99.90;;;11.32;66.99;97084.25;6255880;22;113315;-87
2023/12/13 10:18:16;;;;;;;2.80;1.40;;;11.00;99.90;;;11.32;66.55;97075.97;6257714;22;124456;-86
2023/12/13 10:20:45;;;;;;;1.97;1.40;;;11.00;99.90;;;11.35;66.54;97079.97;6285799;22;123197;-85
2023/12/13 10:23:13;;;;;;;1.90;1.20;;;11.00;99.90;;;11.35;66.58;97083.53;6252228;22;114663;-86
2023/12/13 10:25:41;;;;;;;3.77;1.40;;;11.00;99.90;;;11.40;66.87;97082.47;6250769;22;114675;-87
2023/12/13 10:28:14;;;;;;;5.63;1.97;;;11.10;99.90;;;11.44;66.17;97084.13;6230482;22;123717;-88
2023/12/13 10:30:40;;;;;;;2.50;1.70;;;11.10;99.90;;;11.49;66.59;97092.16;6224201;22;123450;-91
2023/12/13 10:33:07;;;;;;;4.17;1.43;;;11.20;99.90;;;11.50;66.56;97077.19;6196579;22;114135;-87
2023/12/13 10:35:41;;;;;;;2.90;1.90;;;11.20;99.90;;;11.56;66.21;97069.41;6250792;22;114991;-89
2023/12/13 10:38:15;;;;;;;5.13;2.03;;;11.20;99.90;;;11.58;66.35;97069.00;6246733;22;123924;-83
2023/12/13 10:40:47;;;;;;;2.43;1.30;;;11.40;99.90;;;11.62;66.12;97064.38;6251962;22;123375;-88
2023/12/13 10:43:15;;;;;;;2.10;1.10;;;11.30;99.90;;;11.65;66.44;97064.44;6229885;22;113897;-88
2023/12/13 10:46:08;;;;;;;3.00;1.70;;;11.30;99.90;;;11.68;66.19;97057.38;6228134;22;114018;-88
2023/12/13 10:48:39;;;;;;;2.43;1.60;;;11.40;99.90;;;11.74;66.64;97072.56;6213851;22;124467;-86
2023/12/13 10:51:07;;;;;;;7.30;1.93;;;11.40;99.90;;;11.82;66.47;97060.47;6227834;22;123234;-85
2023/12/13 10:53:41;;;;;;;3.13;1.70;;;11.40;99.90;;;11.91;66.15;97061.06;6203319;22;113295;-86
2023/12/13 10:56:22;;;;;;;4.00;1.70;;;11.50;99.90;;;11.99;65.97;97059.25;6261127;22;113918;-86
2023/12/13 10:58:51;;;;;;;2.20;1.47;;;11.60;99.90;;;12.12;65.89;97065.47;6280840;22;123224;-88
2023/12/13 11:01:23;;;;;;;4.73;1.57;;;11.60;99.90;;;12.24;65.32;97059.75;6256241;22;124773;-87
2023/12/13 11:03:56;;;;;;;3.77;1.97;;;11.70;99.90;;;12.37;65.24;97052.88;6264105;22;114416;-85
2023/12/13 11:06:24;;;;;;;2.27;1.73;;;11.80;99.90;;;12.51;64.91;97057.09;6279509;22;114227;-88
2023/12/13 11:08:54;;;;;;;2.50;1.27;;;11.90;99.90;;;12.65;64.68;97060.09;6284700;22;123376;-86
2023/12/13 11:11:27;;;;;;;2.17;1.40;;;12.00;99.90;;;12.81;64.33;97060.81;6275833;22;124222;-87
2023/12/13 11:13:54;;;;;;;4.47;1.53;;;12.20;99.90;;;12.97;63.87;97062.63;6252066;22;113436;-86
2023/12/13 11:16:25;;;;;;;5.90;1.27;;;12.40;99.90;;;13.14;63.65;97056.56;6225313;22;112864;-86
2023/12/13 11:18:57;;;;;;;2.40;1.40;;;12.50;99.90;;;13.33;63.36;97054.91;6277780;22;124139;-86
2023/12/13 11:21:29;;;;;;;3.63;1.43;;;13.80;99.90;;;13.49;62.73;97061.09;6277119;22;123804;-87
2023/12/13 11:24:12;;;;;;;2.13;1.37;;;12.70;99.90;;;13.62;62.31;97056.91;6221568;22;114126;-84
2023/12/13 11:26:46;;;;;;;2.43;1.20;;;12.90;99.90;;;13.68;61.69;97060.16;6274940;22;114085;-87
2023/12/13 11:29:18;;;;;;;1.50;1.03;;;13.00;99.80;;;13.74;61.58;97055.09;6248372;22;124088;-88
2023/12/13 11:32:33;;;;;;;2.70;1.20;;;13.30;99.60;;;13.79;60.98;97043.66;6276302;22;123857;-88
2023/12/13 11:35:18;;;;;;;4.40;1.40;;;13.20;99.10;;;13.78;60.29;97044.81;6095025;23;114301;-88
2023/12/13 11:37:53;;;;;;;2.30;1.30;;;13.30;98.50;;;13.81;59.92;97052.38;6070344;23;112152;-90
2023/12/13 11:40:20;;;;;;;2.30;1.20;;;13.30;98.30;;;13.86;60.03;97049.28;6119619;23;124425;-89
2023/12/13 11:42:50;;;;;;;3.80;1.43;;;13.40;98.40;;;13.89;59.61;97046.56;6094505;23;123029;-88
2023/12/13 11:45:20;;;;;;;4.07;2.13;;;13.50;98.10;;;13.87;59.21;97050.91;6118182;23;114410;-88
2023/12/13 11:47:52;;;;;;;5.17;1.57;;;13.50;97.90;;;13.80;58.74;97053.56;6094597;23;114088;-88
2023/12/13 11:50:19;;;;;;;1.33;1.23;;;13.50;97.40;;;13.70;58.59;97044.75;6117401;23;124382;-87
2023/12/13 11:52:48;;;;;;;2.70;1.57;;;13.50;97.20;;;13.63;58.33;97052.16;6120205;23;123065;-89
2023/12/13 11:55:20;;;;;;;1.30;1.10;;;13.40;96.90;;;13.53;58.36;97033.38;6093770;23;114297;-87
2023/12/13 11:57:48;;;;;;;1.57;1.07;;;13.40;96.90;;;13.49;58.68;97036.13;6119364;23;113206;-87
2023/12/13 12:00:24;;;;;;;2.30;1.27;;;13.30;96.90;;;13.47;58.52;97033.72;6094814;23;124133;-88
2023/12/13 12:02:54;;;;;;;2.57;1.67;;;13.30;96.90;;;13.48;58.77;97029.75;6095629;23;123792;-89
2023/12/13 12:05:23;;;;;;;3.00;1.53;;;13.30;96.90;;;13.55;58.60;97015.19;6097360;23;114545;-88
2023/12/13 12:08:02;;;;;;;2.70;1.33;;;13.30;97.00;;;13.66;58.80;97016.13;6125077;23;113923;-88
2023/12/13 12:10:34;;;;;;;2.17;1.40;;;13.40;97.10;;;13.83;58.81;97013.94;6174205;22;124518;-88
2023/12/13 12:13:05;;;;;;;1.67;1.20;;;13.40;97.20;;;13.98;58.14;97009.38;6255610;22;123303;-88
2023/12/13 12:15:39;;;;;;;2.00;1.40;;;13.60;97.30;;;14.14;57.85;96999.66;6254609;22;115040;-90
2023/12/13 12:18:06;;;;;;;1.93;1.50;;;13.70;97.10;;;14.34;57.63;96997.47;6282707;22;114189;-89
2023/12/13 12:20:35;;;;;;;5.97;1.63;;;13.80;97.10;;;14.54;56.88;96997.31;6256318;22;123431;-89
2023/12/13 12:23:09;;;;;;;3.87;1.30;;;14.00;96.90;;;14.68;56.11;96991.88;6279814;22;124334;-89
2023/12/13 12:25:45;;;;;;;1.90;1.20;;;14.10;96.50;;;14.72;55.44;96992.72;6277211;22;114293;-90
2023/12/13 12:28:14;;;;;;;1.43;1.10;;;14.20;96.10;;;14.74;54.92;96993.09;6246936;22;114037;-89
2023/12/13 12:30:44;;;;;;;3.53;1.20;;;14.30;95.70;;;14.79;54.64;96983.63;6274655;22;123439;-88
2023/12/13 12:33:24;;;;;;;1.60;1.20;;;14.40;95.40;;;14.84;54.73;96988.81;6273500;22;123043;-89
2023/12/13 12:35:51;;;;;;;2.50;1.10;;;14.30;95.40;;;14.88;54.19;96978.50;6247243;22;114460;-88
2023/12/13 12:38:17;;;;;;;1.40;1.00;;;15.50;95.60;;;14.92;54.31;96973.78;6245805;22;114334;-90
2023/12/13 12:40:45;;;;;;;1.20;1.07;;;15.80;95.70;;;14.97;54.34;96981.78;6271634;22;123840;-90
2023/12/13 12:43:13;;;;;;;3.37;1.20;;;15.80;95.50;;;15.03;53.64;96971.09;6245331;22;124181;-89
2023/12/13 12:45:39;;;;;;;1.77;1.10;;;14.70;94.70;;;15.12;53.61;96971.53;6274155;22;114519;-90
2023/12/13 12:48:06;;;;;;;2.13;1.00;;;14.80;94.70;;;15.28;53.22;96968.44;6250566;22;114528;-90
2023/12/13 12:50:36;;;;;;;2.20;1.00;;;14.90;94.90;;;15.45;52.93;96967.75;6272452;22;124500;-89
2023/12/13 12:53:03;;;;;;;1.90;1.10;;;15.00;94.50;;;15.60;52.80;96962.25;6272163;22;124017;-89
2023/12/13 12:55:29;;;;;;;2.47;1.27;;;15.10;94.60;;;15.76;52.54;96954.41;6217867;22;112909;-86
2023/12/13 12:57:56;;;;;;;1.50;1.00;;;15.30;94.50;;;15.90;52.61;96968.41;6273368;22;114078;-87
2023/12/13 13:00:22;;;;;;;1.30;0.97;;;15.40;94.40;;;16.02;51.86;96964.44;6271312;22;124211;-86
2023/12/13 13:02:49;;;;;;;1.23;1.00;;;15.50;94.10;;;16.08;51.82;96959.28;6272483;22;123644;-85
2023/12/13 13:05:16;;;;;;;1.73;1.20;;;15.60;94.20;;;16.13;51.30;96958.91;6243559;22;115396;-86
2023/12/13 13:07:42;;;;;;;2.60;0.90;;;15.70;93.90;;;16.14;51.20;96968.84;6272016;22;115068;-84
2023/12/13 13:10:12;;;;;;;1.20;1.00;;;15.80;93.60;;;16.10;51.24;96966.06;6272762;22;123994;-88
2023/12/13 13:12:42;;;;;;;2.40;1.23;;;15.80;93.30;;;16.06;50.93;96962.44;6271668;22;124535;-87
2023/12/13 13:15:10;;;;;;;2.80;1.27;;;15.90;93.10;;;16.00;50.79;96955.66;6272479;22;96896;-87
2023/12/13 13:17:36;;;;;;;3.37;1.37;;;18.40;94.00;;;15.94;51.09;96960.03;6271307;22;114483;-88
2023/12/13 13:20:12;;;;;;;3.53;1.07;;;15.80;92.80;;;15.85;51.14;96957.63;6270587;22;124423;-89
2023/12/13 13:22:40;;;;;;;2.20;0.90;;;15.80;92.70;;;15.77;51.18;96956.00;6245147;22;122867;-87
2023/12/13 13:25:08;;;;;;;2.10;1.03;;;15.70;92.70;;;15.67;51.22;96951.16;6271786;22;113465;-88
2023/12/13 13:27:37;;;;;;;1.57;1.00;;;15.70;92.70;;;15.63;51.60;96958.69;6244041;22;112819;-88
2023/12/13 13:30:10;;;;;;;2.87;0.93;;;15.60;92.70;;;15.55;52.05;96954.28;6271164;22;124044;-88
2023/12/13 13:32:38;;;;;;;2.43;1.00;;;15.60;92.80;;;15.53;51.79;96967.78;6270421;22;123652;-89
2023/12/13 13:35:06;;;;;;;1.57;1.10;;;15.50;92.90;;;15.45;51.93;96969.75;6271733;22;114460;-89
2023/12/13 13:37:34;;;;;;;1.80;1.07;;;15.40;92.90;;;15.37;52.16;96962.56;6269304;22;114192;-88
2023/12/13 13:40:04;;;;;;;1.17;0.80;;;15.30;92.80;;;15.27;52.03;96980.78;6243934;22;124149;-89
2023/12/13 13:42:31;;;;;;;2.10;1.13;;;15.30;92.90;;;15.16;51.94;96982.69;6216094;22;124339;-89
2023/12/13 13:45:02;;;;;;;1.43;1.00;;;17.80;93.90;;;15.01;52.54;97002.03;6217985;22;112564;-88
2023/12/13 13:47:28;;;;;;;1.50;1.00;;;15.00;92.90;;;14.89;53.02;96996.81;6244533;22;113929;-87
2023/12/13 13:49:55;;;;;;;1.57;0.90;;;16.50;93.80;;;14.76;53.09;96998.28;6244420;22;123645;-88
2023/12/13 13:52:22;;;;;;;3.00;1.00;;;14.80;93.20;;;14.54;53.40;96998.09;6273186;22;122871;-87
2023/12/13 13:54:50;;;;;;;1.47;0.90;;;14.70;93.40;;;14.34;54.01;97005.00;6245428;22;115280;-88
2023/12/13 13:57:16;;;;;;;2.23;1.00;;;14.40;93.50;;;14.11;54.36;97011.53;6243143;22;113660;-88
2023/12/13 13:59:50;;;;;;;2.43;1.20;;;14.20;93.60;;;13.88;54.95;97008.88;6273042;22;123266;-88
2023/12/13 14:02:32;;;;;;;1.20;0.80;;;14.10;93.80;;;13.67;55.48;97026.06;6219300;22;123083;-88
2023/12/13 14:05:01;;;;;;;1.13;0.80;;;13.90;93.90;;;13.48;55.70;97020.63;6276066;22;114505;-88
2023/12/13 14:07:27;;;;;;;1.80;0.90;;;15.50;94.70;;;13.25;56.21;97018.72;6249273;22;113980;-87
2023/12/13 14:09:57;;;;;;;2.33;1.00;;;13.50;94.10;;;13.08;56.56;97027.53;6279296;22;124072;-87
2023/12/13 14:12:38;;;;;;;1.83;0.90;;;15.60;95.20;;;12.89;56.88;97033.19;6280136;22;123934;-87
2023/12/13 14:15:11;;;;;;;1.13;0.80;;;13.10;94.30;;;12.76;57.47;97040.88;6257386;22;113730;-87
2023/12/13 14:17:37;;;;;;;1.37;0.90;;;13.00;94.40;;;12.61;57.63;97026.00;6283612;22;113943;-87
2023/12/13 14:20:29;;;;;;;1.20;1.07;;;12.90;94.60;;;12.49;57.73;97042.78;6258105;22;123182;-87
2023/12/13 14:23:22;;;;;;;1.40;0.93;;;13.80;95.10;;;12.38;57.94;97037.06;6080049;23;123809;-85
2023/12/13 14:25:52;;;;;;;1.30;1.03;;;12.60;94.80;;;12.37;58.16;97041.81;6076940;23;114692;-87
2023/12/13 14:28:25;;;;;;;1.63;1.20;;;12.60;95.30;;;12.33;58.02;97043.72;6050106;23;113244;-86
2023/12/13 14:31:00;;;;;;;1.70;0.90;;;12.50;95.00;;;12.28;58.40;97055.09;6005056;23;123588;-87
2023/12/13 14:33:34;;;;;;;1.67;1.00;;;12.40;95.10;;;12.24;58.59;97051.44;6101032;23;123997;-86
2023/12/13 14:36:06;;;;;;;1.10;1.00;;;12.30;95.40;;;12.20;58.71;97052.53;6101350;23;113602;-86
2023/12/13 14:38:41;;;;;;;1.63;0.90;;;12.30;95.30;;;12.17;59.04;97051.31;6079156;23;113369;-85
2023/12/13 14:41:12;;;;;;;1.40;1.00;;;12.30;95.50;;;12.18;59.18;97054.88;6105228;23;123868;-86
2023/12/13 14:43:43;;;;;;;1.70;0.97;;;12.20;95.60;;;12.19;59.25;97054.50;6029124;23;123687;-86
2023/12/13 14:46:11;;;;;;;1.13;0.90;;;12.20;95.80;;;12.21;59.50;97060.47;6050368;23;114416;-88
2023/12/13 14:48:41;;;;;;;1.17;0.80;;;15.00;97.40;;;12.23;59.66;97049.84;6095943;23;115005;-86
2023/12/13 14:51:12;;;;;;;0.90;0.77;;;12.20;96.20;;;12.22;59.80;97056.53;6099180;23;122993;-86
2023/12/13 14:53:40;;;;;;;1.77;1.13;;;12.10;96.10;;;12.26;59.82;97059.41;6079191;23;122438;-86
2023/12/13 14:56:27;;;;;;;1.43;1.27;;;13.00;96.70;;;12.22;59.95;97064.84;6079150;23;113997;-86
2023/12/13 14:59:09;;;;;;;1.80;1.10;;;9.10;95.50;;;12.23;60.01;97068.44;6079834;22;112682;-87
2023/12/13 15:01:45;;;;;;;2.73;1.07;;;12.10;96.50;;;12.22;60.09;97075.91;6232618;22;124121;-86
2023/12/13 15:04:20;;;;;;;1.00;0.80;;;12.10;96.50;;;12.20;60.25;97069.97;6254227;22;123589;-84
2023/12/13 15:06:46;;;;;;;1.27;1.10;;;12.10;96.70;;;12.22;60.25;97081.47;6198823;22;112849;-86
2023/12/13 15:09:13;;;;;;;1.37;1.10;;;12.10;96.80;;;12.23;60.35;97069.22;6226591;22;113135;-87
2023/12/13 15:11:45;;;;;;;1.10;0.93;;;12.10;96.90;;;12.26;60.69;97082.34;6192124;22;122757;-86
2023/12/13 15:14:12;;;;;;;3.07;1.33;;;12.10;97.10;;;12.25;61.12;97089.06;6197197;22;122498;-87
2023/12/13 15:16:47;;;;;;;5.10;1.20;;;12.10;97.40;;;12.30;61.39;97091.50;6224353;22;114921;-86
2023/12/13 15:19:25;;;;;;;1.10;0.90;;;12.10;97.40;;;12.32;61.75;97093.91;6196464;22;111973;-85
2023/12/13 15:21:52;;;;;;;1.50;1.03;;;12.00;97.50;;;12.29;61.77;97089.91;6232491;22;123584;-84
2023/12/13 15:24:48;;;;;;;1.83;1.30;;;11.00;97.20;;;12.24;61.69;97084.66;6254990;22;123129;-85
2023/12/13 15:27:42;;;;;;;2.30;1.43;;;11.80;97.70;;;12.18;62.07;97094.44;6134143;23;114611;-85
2023/12/13 15:30:10;;;;;;;2.87;1.60;;;12.10;97.90;;;12.15;62.34;97095.19;6107654;23;112302;-86
2023/12/13 15:32:45;;;;;;;1.93;1.17;;;12.00;97.90;;;12.12;62.47;97095.91;6109435;23;123964;-86
2023/12/13 15:35:13;;;;;;;2.43;1.17;;;12.00;97.90;;;12.05;61.90;97096.56;6079320;23;121852;-85
2023/12/13 15:37:45;;;;;;;3.40;1.47;;;12.00;97.80;;;12.04;62.26;97097.72;6049042;23;114048;-84
2023/12/13 15:40:15;;;;;;;1.40;1.20;;;11.90;97.90;;;11.97;62.39;97102.31;6075444;23;114835;-85
2023/12/13 15:42:53;;;;;;;2.50;1.53;;;11.90;97.70;;;11.91;62.20;97099.81;6052353;23;124293;-85
2023/12/13 15:45:21;;;;;;;1.60;1.20;;;14.50;99.00;;;11.86;62.60;97104.84;6073533;23;123194;-85
2023/12/13 15:47:55;;;;;;;2.90;1.20;;;11.80;97.80;;;11.84;62.63;97109.91;6049158;23;113951;-86
2023/12/13 15:50:37;;;;;;;1.80;1.40;;;11.80;97.80;;;11.80;62.60;97111.81;6077334;23;113657;-86
2023/12/13 15:53:15;;;;;;;2.33;1.20;;;11.80;98.00;;;11.81;62.55;97121.69;6036741;23;123138;-87
2023/12/13 15:56:14;;;;;;;2.40;1.10;;;11.70;97.90;;;11.81;62.90;97122.50;6047272;23;123612;-87
2023/12/13 15:58:50;;;;;;;1.33;1.20;;;11.70;98.00;;;11.85;62.59;97126.16;6024783;23;113982;-87
2023/12/13 16:01:26;;;;;;;1.93;1.40;;;11.70;98.00;;;11.85;62.50;97126.16;6025584;23;114737;-86
2023/12/13 16:03:56;;;;;;;2.53;1.50;;;11.70;98.10;;;11.88;62.68;97125.47;6098324;22;123696;-87
2023/12/13 16:06:24;;;;;;;1.77;1.10;;;11.70;98.20;;;11.90;62.60;97123.13;6090972;22;123486;-88
2023/12/13 16:08:57;;;;;;;1.60;1.23;;;11.70;98.20;;;11.90;63.01;97125.91;6213941;22;114045;-87
2023/12/13 16:11:38;;;;;;;2.23;1.20;;;11.70;98.40;;;11.93;62.93;97124.38;6179532;22;113649;-87
2023/12/13 16:14:09;;;;;;;1.77;1.17;;;11.70;98.40;;;11.90;62.95;97120.38;6227402;22;124750;-87
2023/12/13 16:16:39;;;;;;;2.30;1.43;;;11.70;98.40;;;11.87;63.14;97123.84;6207784;22;123879;-85
2023/12/13 16:19:22;;;;;;;4.67;1.70;;;11.70;98.50;;;11.86;63.11;97133.31;6262720;22;113854;-87
2023/12/13 16:21:53;;;;;;;4.43;1.60;;;11.70;98.50;;;11.83;63.37;97135.97;6213428;22;113889;-87